createdAt,value
2018-03-03T00:00:14.693Z,118.20
2018-03-03T00:02:42.939Z,116.17
2018-03-03T00:05:10.417Z,101.90
2018-03-03T00:07:37.914Z,106.83
2018-03-03T00:10:06.156Z,108.57
2018-03-03T00:12:33.632Z,103.73
2018-03-03T00:15:01.130Z,103.93
2018-03-03T00:17:28.652Z,110.53
2018-03-03T00:19:56.908Z,102.37
2018-03-03T00:22:36.239Z,106.23
2018-03-03T00:25:03.710Z,114.77
2018-03-03T00:27:31.288Z,104.53
2018-03-03T00:29:59.921Z,103.83
2018-03-03T00:32:27.402Z,101.50
2018-03-03T00:34:55.054Z,104.03
2018-03-03T00:37:22.536Z,95.20
2018-03-03T00:39:50.008Z,97.60
2018-03-03T00:42:17.504Z,96.20
2018-03-03T00:44:44.998Z,90.20
2018-03-03T00:47:12.476Z,77.27
2018-03-03T00:49:40.766Z,88.77
2018-03-03T00:52:09.009Z,89.23
2018-03-03T00:54:36.484Z,101.27
2018-03-03T00:57:03.981Z,89.33
2018-03-03T00:59:32.215Z,82.90
2018-03-03T01:01:59.685Z,82.30
2018-03-03T01:04:27.188Z,88.10
2018-03-03T01:06:54.661Z,79.27
2018-03-03T01:09:22.131Z,82.63
2018-03-03T01:11:49.624Z,81.27
2018-03-03T01:14:17.865Z,87.10
2018-03-03T01:16:45.365Z,76.00
2018-03-03T01:19:12.849Z,72.17
2018-03-03T01:21:40.332Z,76.13
2018-03-03T01:24:07.824Z,70.97
2018-03-03T01:26:36.805Z,73.53
2018-03-03T01:29:04.278Z,71.37
2018-03-03T01:31:32.908Z,74.97
2018-03-03T01:34:00.390Z,75.80
2018-03-03T01:36:27.879Z,74.00
2018-03-03T01:38:56.144Z,72.13
2018-03-03T01:41:23.616Z,72.97
2018-03-03T01:43:51.089Z,62.27
2018-03-03T01:46:18.589Z,59.70
2018-03-03T01:48:46.116Z,72.93
2018-03-03T01:51:26.406Z,75.10
2018-03-03T01:53:53.879Z,76.00
2018-03-03T01:56:22.533Z,79.50
2018-03-03T01:58:50.796Z,85.10
2018-03-03T02:01:19.036Z,81.57
2018-03-03T02:03:46.516Z,84.87
2018-03-03T02:06:14.008Z,91.00
2018-03-03T02:08:42.247Z,86.20
2018-03-03T02:11:09.725Z,92.63
2018-03-03T02:13:38.360Z,93.20
2018-03-03T02:16:05.845Z,99.20
2018-03-03T02:18:33.322Z,94.27
2018-03-03T02:21:01.601Z,84.63
2018-03-03T02:23:29.840Z,87.70
2018-03-03T02:25:57.309Z,94.40
2018-03-03T02:28:25.941Z,95.60
2018-03-03T02:30:54.181Z,91.33
2018-03-03T02:33:21.664Z,84.50
2018-03-03T02:35:49.922Z,93.43
2018-03-03T02:38:18.909Z,89.70
2018-03-03T02:40:47.176Z,82.30
2018-03-03T02:43:14.651Z,83.47
2018-03-03T02:45:42.224Z,91.90
2018-03-03T02:48:09.724Z,75.80
2018-03-03T02:50:37.253Z,88.23
2018-03-03T02:53:05.494Z,77.03
2018-03-03T02:55:32.997Z,77.47
2018-03-03T02:58:01.245Z,77.47
2018-03-03T03:00:28.729Z,91.73
2018-03-03T03:02:56.996Z,75.07
2018-03-03T03:05:25.242Z,68.33
2018-03-03T03:07:52.730Z,80.40
2018-03-03T03:10:21.008Z,72.27
2018-03-03T03:12:49.248Z,79.47
2018-03-03T03:15:16.719Z,72.83
2018-03-03T03:17:44.222Z,85.37
2018-03-03T03:20:12.465Z,73.10
2018-03-03T03:22:41.444Z,73.77
2018-03-03T03:25:10.125Z,77.07
2018-03-03T03:27:37.604Z,77.60
2018-03-03T03:30:05.846Z,69.77
2018-03-03T03:32:33.349Z,71.37
2018-03-03T03:35:00.912Z,67.03
2018-03-03T03:37:28.380Z,67.63
2018-03-03T03:39:56.638Z,71.53
2018-03-03T03:42:24.111Z,73.80
2018-03-03T03:44:52.370Z,68.53
2018-03-03T03:47:20.604Z,67.87
2018-03-03T03:49:48.082Z,69.90
2018-03-03T03:52:15.563Z,67.27
2018-03-03T03:54:44.548Z,68.40
2018-03-03T03:57:12.049Z,69.20
2018-03-03T03:59:40.290Z,69.60
2018-03-03T04:02:07.770Z,66.00
2018-03-03T04:04:36.029Z,64.87
2018-03-03T04:07:03.505Z,65.87
2018-03-03T04:09:31.744Z,55.90
2018-03-03T04:11:59.228Z,62.40
2018-03-03T04:14:26.697Z,57.33
2018-03-03T04:16:54.965Z,54.67
2018-03-03T04:19:23.217Z,56.73
2018-03-03T04:21:50.684Z,54.47
2018-03-03T04:24:18.173Z,61.43
2018-03-03T04:26:46.414Z,60.03
2018-03-03T04:29:13.916Z,58.03
2018-03-03T04:31:42.161Z,58.73
2018-03-03T04:34:09.640Z,51.93
2018-03-03T04:36:37.895Z,49.67
2018-03-03T04:39:05.430Z,49.03
2018-03-03T04:41:32.900Z,54.90
2018-03-03T04:44:00.396Z,53.27
2018-03-03T04:46:28.633Z,58.33
2018-03-03T04:48:56.108Z,53.50
2018-03-03T04:51:23.601Z,54.10
2018-03-03T04:53:51.857Z,55.17
2018-03-03T04:56:20.839Z,63.77
2018-03-03T04:59:06.025Z,62.37
2018-03-03T05:01:34.451Z,64.30
2018-03-03T05:04:03.393Z,68.87
2018-03-03T05:06:46.722Z,65.43
2018-03-03T05:09:14.220Z,68.90
2018-03-03T05:11:41.693Z,66.97
2018-03-03T05:14:19.898Z,80.37
2018-03-03T05:16:52.981Z,70.57
2018-03-03T05:19:35.359Z,67.33
2018-03-03T05:22:08.493Z,77.53
2018-03-03T05:24:54.696Z,67.50
2018-03-03T05:27:27.768Z,79.67
2018-03-03T05:30:01.017Z,78.50
2018-03-03T05:32:34.258Z,75.20
2018-03-03T05:35:21.524Z,92.87
2018-03-03T05:38:05.709Z,75.10
2018-03-03T05:40:49.698Z,77.70
2018-03-03T05:43:22.874Z,82.83
2018-03-03T05:45:56.080Z,94.40
2018-03-03T05:48:39.228Z,79.33
2018-03-03T05:51:12.428Z,79.60
2018-03-03T05:53:45.712Z,84.37
2018-03-03T05:56:29.010Z,79.17
2018-03-03T05:59:14.400Z,83.13
2018-03-03T06:01:44.724Z,87.30
2018-03-03T06:04:28.929Z,75.83
2018-03-03T06:07:12.234Z,71.23
2018-03-03T06:09:49.616Z,67.63
2018-03-03T06:12:17.091Z,68.70
2018-03-03T06:14:44.564Z,62.30
2018-03-03T06:17:12.069Z,66.90
2018-03-03T06:19:39.545Z,71.20
2018-03-03T06:22:07.021Z,61.03
2018-03-03T06:24:34.511Z,70.27
2018-03-03T06:27:02.781Z,61.10
2018-03-03T06:29:30.254Z,64.60
2018-03-03T06:31:58.528Z,74.20
2018-03-03T06:34:26.769Z,65.60
2018-03-03T06:36:54.242Z,69.43
2018-03-03T06:39:21.813Z,59.50
2018-03-03T06:41:49.284Z,74.00
2018-03-03T06:44:17.568Z,71.60
2018-03-03T06:46:45.825Z,68.90
2018-03-03T06:49:13.296Z,72.30
2018-03-03T06:51:41.532Z,71.60
2018-03-03T06:54:09.013Z,84.67
2018-03-03T06:56:36.529Z,76.40
2018-03-03T06:59:04.026Z,150.30
2018-03-03T07:01:33.002Z,87.73
2018-03-03T07:04:00.477Z,83.70
2018-03-03T07:06:28.725Z,85.80
2018-03-03T07:08:56.194Z,71.53
2018-03-03T07:11:23.685Z,70.03
2018-03-03T07:13:51.932Z,85.10
2018-03-03T07:16:19.405Z,72.83
2018-03-03T07:18:47.652Z,76.40
2018-03-03T07:21:15.121Z,68.20
2018-03-03T07:23:42.613Z,70.23
2018-03-03T07:26:10.172Z,81.13
2018-03-03T07:28:37.650Z,74.70
2018-03-03T07:31:05.933Z,79.13
2018-03-03T07:33:33.405Z,76.00
2018-03-03T07:36:00.883Z,80.00
2018-03-03T07:38:28.368Z,85.60
2018-03-03T07:40:56.096Z,81.90
2018-03-03T07:43:23.598Z,93.27
2018-03-03T07:45:52.605Z,80.80
2018-03-03T07:48:20.848Z,90.80
2018-03-03T07:50:48.348Z,88.83
2018-03-03T07:53:16.588Z,88.90
2018-03-03T07:55:44.061Z,108.50
2018-03-03T07:58:24.057Z,90.27
2018-03-03T08:00:51.525Z,92.13
2018-03-03T08:03:18.995Z,90.80
2018-03-03T08:05:46.484Z,99.07
2018-03-03T08:08:13.958Z,94.97
2018-03-03T08:10:41.428Z,111.97
2018-03-03T08:13:09.693Z,116.73
2018-03-03T08:15:37.974Z,114.33
2018-03-03T08:18:05.448Z,111.37
2018-03-03T08:20:33.710Z,107.03
2018-03-03T08:23:01.269Z,95.60
2018-03-03T08:25:28.741Z,112.17
2018-03-03T08:27:57.000Z,106.20
2018-03-03T08:30:25.240Z,111.70
2018-03-03T08:32:52.716Z,108.77
2018-03-03T08:35:20.196Z,113.37
2018-03-03T08:37:49.177Z,114.70
2018-03-03T08:40:16.670Z,108.37
2018-03-03T08:42:44.908Z,120.87
2018-03-03T08:45:12.384Z,111.70
2018-03-03T08:47:39.882Z,108.93
2018-03-03T08:50:07.400Z,113.70
2018-03-03T08:52:34.896Z,119.97
2018-03-03T08:55:02.371Z,102.73
2018-03-03T08:57:29.844Z,123.37
2018-03-03T08:59:57.325Z,121.13
2018-03-03T09:02:25.625Z,119.80
2018-03-03T09:04:53.942Z,117.17
2018-03-03T09:07:21.421Z,116.63
2018-03-03T09:09:48.983Z,118.60
2018-03-03T09:12:16.927Z,123.10
2018-03-03T09:14:44.406Z,119.37
2018-03-03T09:17:11.909Z,126.87
2018-03-03T09:19:40.189Z,108.67
2018-03-03T09:22:08.430Z,122.10
2018-03-03T09:24:35.925Z,121.20
2018-03-03T09:27:04.164Z,122.37
2018-03-03T09:29:31.685Z,127.67
2018-03-03T09:31:59.181Z,127.63
2018-03-03T09:34:26.652Z,139.97
2018-03-03T09:36:54.129Z,131.63
2018-03-03T09:39:22.388Z,141.33
2018-03-03T09:41:49.864Z,142.43
2018-03-03T09:44:17.336Z,142.37
2018-03-03T09:46:45.593Z,138.20
2018-03-03T09:49:13.838Z,140.93
2018-03-03T09:51:41.338Z,129.50
2018-03-03T09:54:09.612Z,137.47
2018-03-03T09:56:37.085Z,131.80
2018-03-03T09:59:05.348Z,141.33
2018-03-03T10:01:32.933Z,144.07
2018-03-03T10:04:00.344Z,146.40
2018-03-03T10:06:27.832Z,144.97
2018-03-03T10:08:55.340Z,134.97
2018-03-03T10:11:22.841Z,157.20
2018-03-03T10:13:50.313Z,164.43
2018-03-03T10:16:18.619Z,139.37
2018-03-03T10:18:46.832Z,140.90
2018-03-03T10:21:14.312Z,147.70
2018-03-03T10:23:41.797Z,133.70
2018-03-03T10:26:10.056Z,136.10
2018-03-03T10:28:38.296Z,134.80
2018-03-03T10:31:05.768Z,137.83
2018-03-03T10:33:33.257Z,133.70
2018-03-03T10:36:01.496Z,128.80
2018-03-03T10:38:29.085Z,132.73
2018-03-03T10:40:56.560Z,146.07
2018-03-03T10:43:24.801Z,123.10
2018-03-03T10:45:52.292Z,158.07
2018-03-03T10:48:20.530Z,132.33
2018-03-03T10:50:48.078Z,129.10
2018-03-03T10:53:15.503Z,118.47
2018-03-03T10:55:42.976Z,128.23
2018-03-03T10:58:10.468Z,126.10
2018-03-03T11:00:37.950Z,127.57
2018-03-03T11:03:06.212Z,133.57
2018-03-03T11:05:34.915Z,143.50
2018-03-03T11:08:03.159Z,161.83
2018-03-03T11:10:30.636Z,126.67
2018-03-03T11:12:59.780Z,148.52
2018-03-03T11:15:27.257Z,141.23
2018-03-03T11:17:54.729Z,153.23
2018-03-03T11:20:22.224Z,175.03
2018-03-03T11:22:50.464Z,165.73
2018-03-03T11:25:17.948Z,162.47
2018-03-03T11:27:45.443Z,145.43
2018-03-03T11:30:12.916Z,141.37
2018-03-03T11:32:40.392Z,146.77
2018-03-03T11:35:07.888Z,159.80
2018-03-03T11:37:35.368Z,154.53
2018-03-03T11:40:03.614Z,150.97
2018-03-03T11:42:31.889Z,153.10
2018-03-03T11:45:00.132Z,161.53
2018-03-03T11:47:27.624Z,165.87
2018-03-03T11:49:56.737Z,154.03
2018-03-03T11:52:24.462Z,162.40
2018-03-03T11:54:53.150Z,177.63
2018-03-03T11:57:22.014Z,151.93
2018-03-03T11:59:50.176Z,171.43
2018-03-03T12:02:20.738Z,173.03
2018-03-03T12:04:48.993Z,177.97
2018-03-03T12:07:18.004Z,182.43
2018-03-03T12:09:47.297Z,270.97
2018-03-03T12:12:15.896Z,493.00
2018-03-03T12:14:43.970Z,451.37
2018-03-03T12:17:12.291Z,581.63
2018-03-03T12:19:39.796Z,348.17
2018-03-03T12:22:11.713Z,886.37
2018-03-03T12:24:40.534Z,166.17
2018-03-03T12:27:09.239Z,162.03
2018-03-03T12:29:37.956Z,156.37
2018-03-03T12:32:07.452Z,157.00
2018-03-03T12:34:35.531Z,178.40
2018-03-03T12:37:03.231Z,168.40
2018-03-03T12:39:31.808Z,161.57
2018-03-03T12:42:00.892Z,176.40
2018-03-03T12:44:29.639Z,179.23
2018-03-03T12:46:57.137Z,176.13
2018-03-03T12:49:26.516Z,188.97
2018-03-03T12:51:54.190Z,187.13
2018-03-03T12:54:21.688Z,185.17
2018-03-03T12:56:50.102Z,174.00
2018-03-03T12:59:18.296Z,186.07
2018-03-03T13:01:46.988Z,172.43
2018-03-03T13:04:15.752Z,185.03
2018-03-03T13:06:43.540Z,180.73
2018-03-03T13:09:12.675Z,155.67
2018-03-03T13:11:40.244Z,175.17
2018-03-03T13:14:09.177Z,185.83
2018-03-03T13:16:36.701Z,197.83
2018-03-03T13:19:06.888Z,195.90
2018-03-03T13:21:35.745Z,160.10
2018-03-03T13:24:04.224Z,170.20
2018-03-03T13:26:32.364Z,144.10
2018-03-03T13:29:02.008Z,158.27
2018-03-03T13:31:31.105Z,150.43
2018-03-03T13:33:59.178Z,137.57
2018-03-03T13:36:27.974Z,132.67
2018-03-03T13:38:55.450Z,137.90
2018-03-03T13:41:23.434Z,127.90
2018-03-03T13:43:50.912Z,119.30
2018-03-03T13:46:18.417Z,120.70
2018-03-03T13:48:46.008Z,111.37
2018-03-03T13:51:13.487Z,120.37
2018-03-03T13:53:41.418Z,111.40
2018-03-03T13:56:08.993Z,104.20
2018-03-03T13:58:36.528Z,86.33
2018-03-03T14:01:04.019Z,111.97
2018-03-03T14:03:32.325Z,98.90
2018-03-03T14:06:00.583Z,103.83
2018-03-03T14:08:28.140Z,110.50
2018-03-03T14:10:56.521Z,101.93
2018-03-03T14:13:24.776Z,108.30
2018-03-03T14:15:52.281Z,103.90
2018-03-03T14:18:20.632Z,158.20
2018-03-03T14:20:48.159Z,105.80
2018-03-03T14:23:15.669Z,109.47
2018-03-03T14:25:43.161Z,113.07
2018-03-03T14:28:10.696Z,105.07
2018-03-03T14:30:38.962Z,102.80
2018-03-03T14:33:06.446Z,100.17
2018-03-03T14:35:34.729Z,102.77
2018-03-03T14:38:02.224Z,104.50
2018-03-03T14:40:29.710Z,108.53
2018-03-03T14:42:58.730Z,101.07
2018-03-03T14:45:26.982Z,96.43
2018-03-03T14:47:54.530Z,87.87
2018-03-03T14:50:22.045Z,102.03
2018-03-03T14:52:49.617Z,110.40
2018-03-03T14:55:17.102Z,95.63
2018-03-03T14:57:44.666Z,107.80
2018-03-03T15:00:12.152Z,108.80
2018-03-03T15:02:40.539Z,104.00
2018-03-03T15:05:08.814Z,94.63
2018-03-03T15:07:37.089Z,97.10
2018-03-03T15:10:05.338Z,83.70
2018-03-03T15:12:32.995Z,100.60
2018-03-03T15:15:00.468Z,93.60
2018-03-03T15:17:27.980Z,100.97
2018-03-03T15:19:55.462Z,81.50
2018-03-03T15:22:22.949Z,80.37
2018-03-03T15:24:50.504Z,87.47
2018-03-03T15:27:18.018Z,111.30
2018-03-03T15:29:45.493Z,76.97
2018-03-03T15:32:12.990Z,113.83
2018-03-03T15:34:40.635Z,71.63
2018-03-03T15:37:08.132Z,76.80
2018-03-03T15:39:36.434Z,74.73
2018-03-03T15:42:05.389Z,70.20
2018-03-03T15:44:32.914Z,76.53
2018-03-03T15:47:01.229Z,71.60
2018-03-03T15:49:28.716Z,65.50
2018-03-03T15:51:56.260Z,64.50
2018-03-03T15:54:24.516Z,63.60
2018-03-03T15:56:52.800Z,62.00
2018-03-03T15:59:20.288Z,57.73
2018-03-03T16:01:47.848Z,58.07
2018-03-03T16:04:15.320Z,53.00
2018-03-03T16:06:42.809Z,56.80
2018-03-03T16:09:10.280Z,51.17
2018-03-03T16:11:37.810Z,67.17
2018-03-03T16:14:05.288Z,57.90
2018-03-03T16:16:32.764Z,52.37
2018-03-03T16:19:00.261Z,53.77
2018-03-03T16:21:27.738Z,61.77
2018-03-03T16:23:55.213Z,50.77
2018-03-03T16:26:22.703Z,58.33
2018-03-03T16:28:51.677Z,63.57
2018-03-03T16:31:19.152Z,59.00
2018-03-03T16:33:47.420Z,55.47
2018-03-03T16:36:14.892Z,63.37
2018-03-03T16:38:42.364Z,61.20
2018-03-03T16:41:10.638Z,59.50
2018-03-03T16:43:38.116Z,58.67
2018-03-03T16:46:06.580Z,58.10
2018-03-03T16:48:34.820Z,61.67
2018-03-03T16:51:02.299Z,58.13
2018-03-03T16:53:29.797Z,71.40
2018-03-03T16:55:57.271Z,67.70
2018-03-03T16:58:24.740Z,78.83
2018-03-03T17:00:52.253Z,62.47
2018-03-03T17:03:20.536Z,64.47
2018-03-03T17:05:48.189Z,67.17
2018-03-03T17:08:15.793Z,71.17
2018-03-03T17:10:43.261Z,62.90
2018-03-03T17:13:10.771Z,63.07
2018-03-03T17:15:39.012Z,62.23
2018-03-03T17:18:06.484Z,141.70
2018-03-03T17:20:33.966Z,65.70
2018-03-03T17:23:02.242Z,69.13
2018-03-03T17:25:30.508Z,66.60
2018-03-03T17:27:59.710Z,59.37
2018-03-03T17:30:27.304Z,66.03
2018-03-03T17:32:54.913Z,70.03
2018-03-03T17:35:22.646Z,71.40
2018-03-03T17:37:50.208Z,71.50
2018-03-03T17:40:17.729Z,60.80
2018-03-03T17:42:46.007Z,64.90
2018-03-03T17:45:14.377Z,62.70
2018-03-03T17:47:43.387Z,58.47
2018-03-03T17:50:11.644Z,62.27
2018-03-03T17:52:39.361Z,58.23
2018-03-03T17:55:06.884Z,61.20
2018-03-03T17:57:35.171Z,62.97
2018-03-03T18:00:03.409Z,62.90
2018-03-03T18:02:30.900Z,54.43
2018-03-03T18:04:59.135Z,57.60
2018-03-03T18:07:26.608Z,59.13
2018-03-03T18:09:54.290Z,63.17
2018-03-03T18:12:22.556Z,64.87
2018-03-03T18:14:50.808Z,55.90
2018-03-03T18:17:18.305Z,57.97
2018-03-03T18:19:46.709Z,70.73
2018-03-03T18:22:14.981Z,70.70
2018-03-03T18:24:43.218Z,66.30
2018-03-03T18:27:10.709Z,65.97
2018-03-03T18:29:38.956Z,64.37
2018-03-03T18:32:07.291Z,62.60
2018-03-03T18:34:34.792Z,64.03
2018-03-03T18:37:02.336Z,63.93
2018-03-03T18:39:29.831Z,68.37
2018-03-03T18:41:58.153Z,75.40
2018-03-03T18:44:25.683Z,73.13
2018-03-03T18:46:53.273Z,84.83
2018-03-03T18:49:21.584Z,90.73
2018-03-03T18:51:49.164Z,80.40
2018-03-03T18:54:18.314Z,83.27
2018-03-03T18:56:45.924Z,94.20
2018-03-03T18:59:13.542Z,91.50
2018-03-03T19:01:41.066Z,335.70
2018-03-03T19:04:08.587Z,106.40
2018-03-03T19:06:36.079Z,189.40
2018-03-03T19:09:04.348Z,80.00
2018-03-03T19:11:32.754Z,81.67
2018-03-03T19:14:00.263Z,83.20
2018-03-03T19:16:27.894Z,89.67
2018-03-03T19:18:56.309Z,83.33
2018-03-03T19:21:23.785Z,93.13
2018-03-03T19:23:52.102Z,95.33
2018-03-03T19:26:19.623Z,92.57
2018-03-03T19:28:47.933Z,90.10
2018-03-03T19:31:15.413Z,98.17
2018-03-03T19:33:42.945Z,97.70
2018-03-03T19:36:10.427Z,89.03
2018-03-03T19:38:37.934Z,94.13
2018-03-03T19:41:05.555Z,96.00
2018-03-03T19:43:33.059Z,100.33
2018-03-03T19:46:00.613Z,98.73
2018-03-03T19:48:29.599Z,92.10
2018-03-03T19:50:57.084Z,89.57
2018-03-03T19:53:25.336Z,89.87
2018-03-03T19:55:52.861Z,87.73
2018-03-03T19:58:20.422Z,136.83
2018-03-03T20:00:47.929Z,91.53
2018-03-03T20:03:15.566Z,96.67
2018-03-03T20:05:43.096Z,93.43
2018-03-03T20:08:10.754Z,85.63
2018-03-03T20:10:38.233Z,90.47
2018-03-03T20:13:05.760Z,82.67
2018-03-03T20:15:33.242Z,87.03
2018-03-03T20:18:00.740Z,80.17
2018-03-03T20:20:28.241Z,87.13
2018-03-03T20:22:55.745Z,93.87
2018-03-03T20:25:23.378Z,89.40
2018-03-03T20:27:50.869Z,85.30
2018-03-03T20:30:18.406Z,88.23
2018-03-03T20:32:46.480Z,81.30
2018-03-03T20:35:14.443Z,89.40
2018-03-03T20:37:42.096Z,83.67
2018-03-03T20:40:09.733Z,84.07
2018-03-03T20:42:38.158Z,83.10
2018-03-03T20:45:05.705Z,78.90
2018-03-03T20:47:33.888Z,75.57
2018-03-03T20:50:01.372Z,74.80
2018-03-03T20:52:29.444Z,81.17
2018-03-03T20:54:57.597Z,79.93
2018-03-03T20:57:25.872Z,83.00
2018-03-03T20:59:54.910Z,71.47
2018-03-03T21:02:22.609Z,78.00
2018-03-03T21:04:50.709Z,76.30
2018-03-03T21:07:19.384Z,87.27
2018-03-03T21:09:47.391Z,74.53
2018-03-03T21:12:17.562Z,70.27
2018-03-03T21:14:45.967Z,76.83
2018-03-03T21:17:13.447Z,74.70
2018-03-03T21:19:40.978Z,75.70
2018-03-03T21:22:08.469Z,79.43
2018-03-03T21:24:35.974Z,73.00
2018-03-03T21:27:03.522Z,61.77
2018-03-03T21:29:31.822Z,58.33
2018-03-03T21:31:59.358Z,79.73
2018-03-03T21:34:27.609Z,67.53
2018-03-03T21:36:55.209Z,70.67
2018-03-03T21:39:23.470Z,68.50
2018-03-03T21:41:51.773Z,71.97
2018-03-03T21:44:19.248Z,69.63
2018-03-03T21:46:47.273Z,66.10
2018-03-03T21:49:17.332Z,70.10
2018-03-03T21:51:45.204Z,67.27
2018-03-03T21:54:12.730Z,67.93
2018-03-03T21:56:40.966Z,76.37
2018-03-03T21:59:10.199Z,85.13
2018-03-03T22:01:39.544Z,75.37
2018-03-03T22:04:08.087Z,78.20
2018-03-03T22:06:37.457Z,69.77
2018-03-03T22:09:04.943Z,71.83
2018-03-03T22:11:33.180Z,75.40
2018-03-03T22:14:00.661Z,79.03
2018-03-03T22:16:28.137Z,98.07
2018-03-03T22:18:56.405Z,78.80
2018-03-03T22:21:23.911Z,73.53
2018-03-03T22:23:51.380Z,83.13
2018-03-03T22:26:18.881Z,87.90
2018-03-03T22:28:47.116Z,93.70
2018-03-03T22:31:14.593Z,73.27
2018-03-03T22:33:42.085Z,78.63
2018-03-03T22:36:09.552Z,84.93
2018-03-03T22:38:37.792Z,72.87
2018-03-03T22:41:05.276Z,75.67
2018-03-03T22:43:32.843Z,75.10
2018-03-03T22:46:01.116Z,75.37
2018-03-03T22:48:29.369Z,67.37
2018-03-03T22:50:56.849Z,70.37
2018-03-03T22:53:24.341Z,77.73
2018-03-03T22:55:51.814Z,81.20
2018-03-03T22:58:19.293Z,75.00
2018-03-03T23:00:46.776Z,72.47
2018-03-03T23:03:14.274Z,81.97
2018-03-03T23:05:41.776Z,69.33
2018-03-03T23:08:09.257Z,76.27
2018-03-03T23:10:38.258Z,82.50
2018-03-03T23:13:06.527Z,76.93
2018-03-03T23:15:35.506Z,65.30
2018-03-03T23:18:02.982Z,64.97
2018-03-03T23:20:30.489Z,68.30
2018-03-03T23:22:57.964Z,63.87
2018-03-03T23:25:25.434Z,78.23
2018-03-03T23:27:52.936Z,78.90
2018-03-03T23:30:21.181Z,71.20
2018-03-03T23:32:48.654Z,66.27
2018-03-03T23:35:16.151Z,69.80
2018-03-03T23:37:43.635Z,66.07
2018-03-03T23:40:11.105Z,70.10
2018-03-03T23:42:38.696Z,69.83
2018-03-03T23:45:06.256Z,79.67
2018-03-03T23:47:33.725Z,70.53
2018-03-03T23:50:01.980Z,74.60
2018-03-03T23:52:30.956Z,74.17
2018-03-03T23:54:58.433Z,75.30
2018-03-03T23:57:27.433Z,86.13
2018-03-03T23:59:55.142Z,73.43
